sensor_id;sensor_type;location;lat;lon;timestamp;temperature;humidity
19242;DHT22;9755;47.790;9.620;2022-09-23T00:01:03;4.40;99.90
19242;DHT22;9755;47.790;9.620;2022-09-23T00:03:32;4.40;99.90
19242;DHT22;9755;47.790;9.620;2022-09-23T00:06:01;4.50;99.90
19242;DHT22;9755;47.790;9.620;2022-09-23T00:08:29;4.70;99.90
19242;DHT22;9755;47.790;9.620;2022-09-23T00:10:56;4.80;99.90
19242;DHT22;9755;47.790;9.620;2022-09-23T00:13:23;4.80;99.90
19242;DHT22;9755;47.790;9.620;2022-09-23T00:23:40;4.80;99.90
19242;DHT22;9755;47.790;9.620;2022-09-23T00:26:08;4.50;99.90
19242;DHT22;9755;47.790;9.620;2022-09-23T00:28:36;4.30;99.90
19242;DHT22;9755;47.790;9.620;2022-09-23T00:31:07;4.20;99.90
19242;DHT22;9755;47.790;9.620;2022-09-23T00:33:34;4.20;99.90
19242;DHT22;9755;47.790;9.620;2022-09-23T00:36:02;4.20;99.90
19242;DHT22;9755;47.790;9.620;2022-09-23T00:38:29;4.10;99.90
19242;DHT22;9755;47.790;9.620;2022-09-23T00:40:59;3.90;99.90
19242;DHT22;9755;47.790;9.620;2022-09-23T00:43:40;3.90;99.90
19242;DHT22;9755;47.790;9.620;2022-09-23T00:46:12;4.00;99.90
19242;DHT22;9755;47.790;9.620;2022-09-23T00:48:42;4.10;99.90
19242;DHT22;9755;47.790;9.620;2022-09-23T00:51:13;4.10;99.90
19242;DHT22;9755;47.790;9.620;2022-09-23T00:53:43;4.10;99.90
19242;DHT22;9755;47.790;9.620;2022-09-23T00:56:11;4.00;99.90
19242;DHT22;9755;47.790;9.620;2022-09-23T00:58:41;4.00;99.90
19242;DHT22;9755;47.790;9.620;2022-09-23T01:01:14;4.00;99.90
19242;DHT22;9755;47.790;9.620;2022-09-23T01:03:44;4.00;99.90
19242;DHT22;9755;47.790;9.620;2022-09-23T01:06:12;4.10;99.90
19242;DHT22;9755;47.790;9.620;2022-09-23T01:08:41;4.20;99.90
19242;DHT22;9755;47.790;9.620;2022-09-23T01:11:22;4.20;99.90
19242;DHT22;9755;47.790;9.620;2022-09-23T01:14:01;4.00;99.90
19242;DHT22;9755;47.790;9.620;2022-09-23T01:16:36;3.80;99.90
19242;DHT22;9755;47.790;9.620;2022-09-23T01:19:15;3.60;99.90
19242;DHT22;9755;47.790;9.620;2022-09-23T01:21:55;3.70;99.90
19242;DHT22;9755;47.790;9.620;2022-09-23T01:24:44;3.60;99.90
19242;DHT22;9755;47.790;9.620;2022-09-23T01:27:29;3.50;99.90
19242;DHT22;9755;47.790;9.620;2022-09-23T01:30:16;3.40;99.90
19242;DHT22;9755;47.790;9.620;2022-09-23T01:33:02;3.40;99.90
19242;DHT22;9755;47.790;9.620;2022-09-23T01:35:41;3.40;99.90
19242;DHT22;9755;47.790;9.620;2022-09-23T01:38:15;3.30;99.90
19242;DHT22;9755;47.790;9.620;2022-09-23T01:40:50;3.40;99.90
19242;DHT22;9755;47.790;9.620;2022-09-23T01:43:21;3.50;99.90
19242;DHT22;9755;47.790;9.620;2022-09-23T01:45:54;3.60;99.90
19242;DHT22;9755;47.790;9.620;2022-09-23T01:48:30;3.60;99.90
19242;DHT22;9755;47.790;9.620;2022-09-23T01:51:03;3.60;99.90
19242;DHT22;9755;47.790;9.620;2022-09-23T01:53:37;3.50;99.90
19242;DHT22;9755;47.790;9.620;2022-09-23T01:56:12;3.60;99.90
19242;DHT22;9755;47.790;9.620;2022-09-23T01:58:45;3.60;99.90
19242;DHT22;9755;47.790;9.620;2022-09-23T02:01:17;3.50;99.90
19242;DHT22;9755;47.790;9.620;2022-09-23T02:03:49;3.40;99.90
19242;DHT22;9755;47.790;9.620;2022-09-23T02:06:20;3.40;99.90
19242;DHT22;9755;47.790;9.620;2022-09-23T02:08:52;3.30;99.90
19242;DHT22;9755;47.790;9.620;2022-09-23T02:11:22;3.30;99.90
19242;DHT22;9755;47.790;9.620;2022-09-23T02:13:52;3.40;99.90
19242;DHT22;9755;47.790;9.620;2022-09-23T02:16:27;3.30;99.90
19242;DHT22;9755;47.790;9.620;2022-09-23T02:19:01;3.20;99.90
19242;DHT22;9755;47.790;9.620;2022-09-23T02:21:34;3.20;99.90
19242;DHT22;9755;47.790;9.620;2022-09-23T02:24:06;3.30;99.90
19242;DHT22;9755;47.790;9.620;2022-09-23T02:26:39;3.30;99.90
19242;DHT22;9755;47.790;9.620;2022-09-23T02:29:18;3.20;99.90
19242;DHT22;9755;47.790;9.620;2022-09-23T02:31:51;3.10;99.90
19242;DHT22;9755;47.790;9.620;2022-09-23T02:34:33;3.20;99.90
19242;DHT22;9755;47.790;9.620;2022-09-23T02:37:08;3.20;99.90
19242;DHT22;9755;47.790;9.620;2022-09-23T02:39:43;3.20;99.90
19242;DHT22;9755;47.790;9.620;2022-09-23T02:42:19;3.30;99.90
19242;DHT22;9755;47.790;9.620;2022-09-23T02:44:46;3.30;99.90
19242;DHT22;9755;47.790;9.620;2022-09-23T02:47:14;3.30;99.90
19242;DHT22;9755;47.790;9.620;2022-09-23T02:49:43;3.30;99.90
19242;DHT22;9755;47.790;9.620;2022-09-23T02:52:10;3.30;99.90
19242;DHT22;9755;47.790;9.620;2022-09-23T02:54:38;3.30;99.90
19242;DHT22;9755;47.790;9.620;2022-09-23T02:57:07;3.30;99.90
19242;DHT22;9755;47.790;9.620;2022-09-23T02:59:35;3.20;99.90
19242;DHT22;9755;47.790;9.620;2022-09-23T03:02:21;3.10;99.90
19242;DHT22;9755;47.790;9.620;2022-09-23T03:05:01;3.00;99.90
19242;DHT22;9755;47.790;9.620;2022-09-23T03:07:37;3.10;99.90
19242;DHT22;9755;47.790;9.620;2022-09-23T03:10:14;2.90;99.90
19242;DHT22;9755;47.790;9.620;2022-09-23T03:12:47;2.90;99.90
19242;DHT22;9755;47.790;9.620;2022-09-23T03:15:22;2.90;99.90
19242;DHT22;9755;47.790;9.620;2022-09-23T03:17:55;2.80;99.90
19242;DHT22;9755;47.790;9.620;2022-09-23T03:20:31;3.00;99.90
19242;DHT22;9755;47.790;9.620;2022-09-23T03:23:02;3.00;99.90
19242;DHT22;9755;47.790;9.620;2022-09-23T03:25:35;3.10;99.90
19242;DHT22;9755;47.790;9.620;2022-09-23T03:28:02;3.00;99.90
19242;DHT22;9755;47.790;9.620;2022-09-23T03:30:31;3.00;99.90
19242;DHT22;9755;47.790;9.620;2022-09-23T03:33:03;3.10;99.90
19242;DHT22;9755;47.790;9.620;2022-09-23T03:35:35;3.00;99.90
19242;DHT22;9755;47.790;9.620;2022-09-23T03:38:26;2.90;99.90
19242;DHT22;9755;47.790;9.620;2022-09-23T03:40:58;3.00;99.90
19242;DHT22;9755;47.790;9.620;2022-09-23T03:43:27;3.00;99.90
19242;DHT22;9755;47.790;9.620;2022-09-23T03:45:56;3.00;99.90
19242;DHT22;9755;47.790;9.620;2022-09-23T03:48:24;3.00;99.90
19242;DHT22;9755;47.790;9.620;2022-09-23T03:50:53;3.00;99.90
19242;DHT22;9755;47.790;9.620;2022-09-23T03:53:20;3.00;99.90
19242;DHT22;9755;47.790;9.620;2022-09-23T03:55:47;2.90;99.90
19242;DHT22;9755;47.790;9.620;2022-09-23T03:58:14;2.80;99.90
19242;DHT22;9755;47.790;9.620;2022-09-23T04:00:42;2.80;99.90
19242;DHT22;9755;47.790;9.620;2022-09-23T04:03:09;2.70;99.90
19242;DHT22;9755;47.790;9.620;2022-09-23T04:05:36;2.70;99.90
19242;DHT22;9755;47.790;9.620;2022-09-23T04:08:05;2.70;99.90
19242;DHT22;9755;47.790;9.620;2022-09-23T04:10:32;2.70;99.90
19242;DHT22;9755;47.790;9.620;2022-09-23T04:12:59;2.60;99.90
19242;DHT22;9755;47.790;9.620;2022-09-23T04:15:26;2.60;99.90
19242;DHT22;9755;47.790;9.620;2022-09-23T04:17:53;2.60;99.90
19242;DHT22;9755;47.790;9.620;2022-09-23T04:20:20;2.70;99.90
19242;DHT22;9755;47.790;9.620;2022-09-23T04:22:47;2.70;99.90
19242;DHT22;9755;47.790;9.620;2022-09-23T04:25:18;2.60;99.90
19242;DHT22;9755;47.790;9.620;2022-09-23T04:27:45;2.60;99.90
19242;DHT22;9755;47.790;9.620;2022-09-23T04:30:14;2.60;99.90
19242;DHT22;9755;47.790;9.620;2022-09-23T04:32:43;2.60;99.90
19242;DHT22;9755;47.790;9.620;2022-09-23T04:35:10;2.60;99.90
19242;DHT22;9755;47.790;9.620;2022-09-23T04:37:37;2.60;99.90
19242;DHT22;9755;47.790;9.620;2022-09-23T04:40:05;2.70;99.90
19242;DHT22;9755;47.790;9.620;2022-09-23T04:42:34;2.70;99.90
19242;DHT22;9755;47.790;9.620;2022-09-23T04:45:01;2.70;99.90
19242;DHT22;9755;47.790;9.620;2022-09-23T04:47:30;2.70;99.90
19242;DHT22;9755;47.790;9.620;2022-09-23T04:49:57;2.80;99.90
19242;DHT22;9755;47.790;9.620;2022-09-23T04:52:24;2.80;99.90
19242;DHT22;9755;47.790;9.620;2022-09-23T04:54:51;2.80;99.90
19242;DHT22;9755;47.790;9.620;2022-09-23T04:57:18;2.90;99.90
19242;DHT22;9755;47.790;9.620;2022-09-23T04:59:47;3.00;99.90
19242;DHT22;9755;47.790;9.620;2022-09-23T05:02:15;3.10;99.90
19242;DHT22;9755;47.790;9.620;2022-09-23T05:04:42;3.10;99.90
19242;DHT22;9755;47.790;9.620;2022-09-23T05:07:09;3.00;99.90
19242;DHT22;9755;47.790;9.620;2022-09-23T05:09:36;3.00;99.90
19242;DHT22;9755;47.790;9.620;2022-09-23T05:12:06;3.00;99.90
19242;DHT22;9755;47.790;9.620;2022-09-23T05:14:33;3.00;99.90
19242;DHT22;9755;47.790;9.620;2022-09-23T05:17:01;2.90;99.90
19242;DHT22;9755;47.790;9.620;2022-09-23T05:19:28;2.90;99.90
19242;DHT22;9755;47.790;9.620;2022-09-23T05:21:55;3.00;99.90
19242;DHT22;9755;47.790;9.620;2022-09-23T05:24:22;3.00;99.90
19242;DHT22;9755;47.790;9.620;2022-09-23T05:26:52;3.10;99.90
19242;DHT22;9755;47.790;9.620;2022-09-23T05:29:22;3.20;99.90
19242;DHT22;9755;47.790;9.620;2022-09-23T05:31:49;3.20;99.90
19242;DHT22;9755;47.790;9.620;2022-09-23T05:34:17;3.30;99.90
19242;DHT22;9755;47.790;9.620;2022-09-23T05:36:44;3.30;99.90
19242;DHT22;9755;47.790;9.620;2022-09-23T05:39:11;3.40;99.90
19242;DHT22;9755;47.790;9.620;2022-09-23T05:41:38;3.40;99.90
19242;DHT22;9755;47.790;9.620;2022-09-23T05:44:06;3.40;99.90
19242;DHT22;9755;47.790;9.620;2022-09-23T05:46:33;3.50;99.90
19242;DHT22;9755;47.790;9.620;2022-09-23T05:49:01;3.60;99.90
19242;DHT22;9755;47.790;9.620;2022-09-23T05:51:31;3.70;99.90
19242;DHT22;9755;47.790;9.620;2022-09-23T05:53:59;3.90;99.90
19242;DHT22;9755;47.790;9.620;2022-09-23T05:56:29;4.30;99.90
19242;DHT22;9755;47.790;9.620;2022-09-23T05:58:57;4.80;99.90
19242;DHT22;9755;47.790;9.620;2022-09-23T06:01:26;5.30;99.90
19242;DHT22;9755;47.790;9.620;2022-09-23T06:03:55;6.00;99.90
19242;DHT22;9755;47.790;9.620;2022-09-23T06:06:26;6.20;99.90
19242;DHT22;9755;47.790;9.620;2022-09-23T06:08:55;5.90;99.90
19242;DHT22;9755;47.790;9.620;2022-09-23T06:11:25;5.50;99.90
19242;DHT22;9755;47.790;9.620;2022-09-23T06:13:54;5.40;99.90
19242;DHT22;9755;47.790;9.620;2022-09-23T06:16:21;5.40;99.90
19242;DHT22;9755;47.790;9.620;2022-09-23T06:18:48;5.50;99.90
19242;DHT22;9755;47.790;9.620;2022-09-23T06:21:16;5.60;99.90
19242;DHT22;9755;47.790;9.620;2022-09-23T06:23:44;5.60;99.90
19242;DHT22;9755;47.790;9.620;2022-09-23T06:26:14;5.80;99.90
19242;DHT22;9755;47.790;9.620;2022-09-23T06:28:42;5.90;99.90
19242;DHT22;9755;47.790;9.620;2022-09-23T06:31:11;6.00;99.90
19242;DHT22;9755;47.790;9.620;2022-09-23T06:33:46;6.10;99.90
19242;DHT22;9755;47.790;9.620;2022-09-23T06:36:18;6.40;99.90
19242;DHT22;9755;47.790;9.620;2022-09-23T06:38:45;6.60;99.90
19242;DHT22;9755;47.790;9.620;2022-09-23T06:41:15;6.80;99.90
19242;DHT22;9755;47.790;9.620;2022-09-23T06:43:47;7.00;99.90
19242;DHT22;9755;47.790;9.620;2022-09-23T06:46:15;7.20;99.90
19242;DHT22;9755;47.790;9.620;2022-09-23T06:48:44;7.40;99.90
19242;DHT22;9755;47.790;9.620;2022-09-23T06:51:13;7.60;33.80
19242;DHT22;9755;47.790;9.620;2022-09-23T06:53:45;7.70;1.00
19242;DHT22;9755;47.790;9.620;2022-09-23T06:56:12;8.00;1.00
19242;DHT22;9755;47.790;9.620;2022-09-23T06:58:41;8.20;1.00
19242;DHT22;9755;47.790;9.620;2022-09-23T07:01:09;8.50;1.00
19242;DHT22;9755;47.790;9.620;2022-09-23T07:03:37;8.70;99.90
19242;DHT22;9755;47.790;9.620;2022-09-23T07:06:05;8.80;1.00
19242;DHT22;9755;47.790;9.620;2022-09-23T07:08:33;9.00;99.90
19242;DHT22;9755;47.790;9.620;2022-09-23T07:11:02;9.20;1.00
19242;DHT22;9755;47.790;9.620;2022-09-23T07:13:32;9.50;1.00
19242;DHT22;9755;47.790;9.620;2022-09-23T07:16:03;9.70;1.00
19242;DHT22;9755;47.790;9.620;2022-09-23T07:18:33;10.00;1.00
19242;DHT22;9755;47.790;9.620;2022-09-23T07:21:05;10.20;1.00
19242;DHT22;9755;47.790;9.620;2022-09-23T07:23:33;10.30;99.90
19242;DHT22;9755;47.790;9.620;2022-09-23T07:26:03;10.60;1.00
19242;DHT22;9755;47.790;9.620;2022-09-23T07:28:41;10.80;1.00
19242;DHT22;9755;47.790;9.620;2022-09-23T07:31:13;11.10;1.00
19242;DHT22;9755;47.790;9.620;2022-09-23T07:33:40;11.20;99.90
19242;DHT22;9755;47.790;9.620;2022-09-23T07:36:12;11.30;1.00
19242;DHT22;9755;47.790;9.620;2022-09-23T07:38:41;11.80;99.90
19242;DHT22;9755;47.790;9.620;2022-09-23T07:41:11;12.50;99.90
19242;DHT22;9755;47.790;9.620;2022-09-23T07:43:38;12.90;99.90
19242;DHT22;9755;47.790;9.620;2022-09-23T07:46:09;14.10;99.90
19242;DHT22;9755;47.790;9.620;2022-09-23T07:48:40;15.20;99.90
19242;DHT22;9755;47.790;9.620;2022-09-23T07:51:14;16.20;99.90
19242;DHT22;9755;47.790;9.620;2022-09-23T07:53:44;17.50;99.90
19242;DHT22;9755;47.790;9.620;2022-09-23T07:56:13;18.40;99.90
19242;DHT22;9755;47.790;9.620;2022-09-23T07:58:41;19.40;95.80
19242;DHT22;9755;47.790;9.620;2022-09-23T08:01:09;19.50;97.90
19242;DHT22;9755;47.790;9.620;2022-09-23T08:03:37;19.70;94.30
19242;DHT22;9755;47.790;9.620;2022-09-23T08:06:08;20.60;92.20
19242;DHT22;9755;47.790;9.620;2022-09-23T08:08:35;20.60;90.50
19242;DHT22;9755;47.790;9.620;2022-09-23T08:11:07;21.00;89.20
19242;DHT22;9755;47.790;9.620;2022-09-23T08:13:34;21.30;87.00
19242;DHT22;9755;47.790;9.620;2022-09-23T08:16:02;21.60;85.20
19242;DHT22;9755;47.790;9.620;2022-09-23T08:18:29;22.10;82.20
19242;DHT22;9755;47.790;9.620;2022-09-23T08:20:59;22.40;80.60
19242;DHT22;9755;47.790;9.620;2022-09-23T08:23:27;22.40;78.70
19242;DHT22;9755;47.790;9.620;2022-09-23T08:25:59;22.70;78.00
19242;DHT22;9755;47.790;9.620;2022-09-23T08:28:26;22.70;76.80
19242;DHT22;9755;47.790;9.620;2022-09-23T08:30:54;23.70;75.50
19242;DHT22;9755;47.790;9.620;2022-09-23T08:33:21;23.80;73.40
19242;DHT22;9755;47.790;9.620;2022-09-23T08:35:49;23.40;71.40
19242;DHT22;9755;47.790;9.620;2022-09-23T08:38:16;24.10;70.30
19242;DHT22;9755;47.790;9.620;2022-09-23T08:40:47;24.30;68.70
19242;DHT22;9755;47.790;9.620;2022-09-23T08:43:20;24.20;67.00
19242;DHT22;9755;47.790;9.620;2022-09-23T08:45:52;23.60;69.60
19242;DHT22;9755;47.790;9.620;2022-09-23T08:48:26;23.90;68.40
19242;DHT22;9755;47.790;9.620;2022-09-23T08:50:57;22.70;71.10
19242;DHT22;9755;47.790;9.620;2022-09-23T08:53:31;23.30;70.70
19242;DHT22;9755;47.790;9.620;2022-09-23T08:56:03;24.30;71.40
19242;DHT22;9755;47.790;9.620;2022-09-23T08:58:45;24.30;65.50
19242;DHT22;9755;47.790;9.620;2022-09-23T09:01:20;24.80;67.40
19242;DHT22;9755;47.790;9.620;2022-09-23T09:03:50;24.80;67.40
19242;DHT22;9755;47.790;9.620;2022-09-23T09:06:24;24.70;65.40
19242;DHT22;9755;47.790;9.620;2022-09-23T09:08:56;25.00;65.60
19242;DHT22;9755;47.790;9.620;2022-09-23T09:11:32;25.50;65.80
19242;DHT22;9755;47.790;9.620;2022-09-23T09:14:09;26.10;63.90
19242;DHT22;9755;47.790;9.620;2022-09-23T09:16:46;26.50;62.60
19242;DHT22;9755;47.790;9.620;2022-09-23T09:19:20;26.90;61.10
19242;DHT22;9755;47.790;9.620;2022-09-23T09:21:53;26.70;60.10
19242;DHT22;9755;47.790;9.620;2022-09-23T09:24:29;26.00;59.90
19242;DHT22;9755;47.790;9.620;2022-09-23T09:26:59;25.50;61.10
19242;DHT22;9755;47.790;9.620;2022-09-23T09:29:30;25.30;61.20
19242;DHT22;9755;47.790;9.620;2022-09-23T09:32:10;24.10;63.80
19242;DHT22;9755;47.790;9.620;2022-09-23T09:34:44;24.40;64.90
19242;DHT22;9755;47.790;9.620;2022-09-23T09:37:17;24.50;64.00
19242;DHT22;9755;47.790;9.620;2022-09-23T09:39:48;24.40;67.00
19242;DHT22;9755;47.790;9.620;2022-09-23T09:42:19;23.40;64.80
19242;DHT22;9755;47.790;9.620;2022-09-23T09:44:51;22.90;68.10
19242;DHT22;9755;47.790;9.620;2022-09-23T09:47:29;23.10;67.60
19242;DHT22;9755;47.790;9.620;2022-09-23T09:50:04;23.00;69.30
19242;DHT22;9755;47.790;9.620;2022-09-23T09:52:31;23.50;68.20
19242;DHT22;9755;47.790;9.620;2022-09-23T09:55:24;23.30;67.60
19242;DHT22;9755;47.790;9.620;2022-09-23T09:57:54;21.60;71.60
19242;DHT22;9755;47.790;9.620;2022-09-23T10:00:39;21.70;72.50
19242;DHT22;9755;47.790;9.620;2022-09-23T10:03:33;22.00;71.30
19242;DHT22;9755;47.790;9.620;2022-09-23T10:06:14;20.90;76.60
19242;DHT22;9755;47.790;9.620;2022-09-23T10:08:49;21.40;78.60
19242;DHT22;9755;47.790;9.620;2022-09-23T10:11:28;21.50;76.20
19242;DHT22;9755;47.790;9.620;2022-09-23T10:14:08;21.20;77.60
19242;DHT22;9755;47.790;9.620;2022-09-23T10:16:37;20.70;80.20
19242;DHT22;9755;47.790;9.620;2022-09-23T10:19:13;20.40;83.50
19242;DHT22;9755;47.790;9.620;2022-09-23T10:21:40;20.80;82.50
19242;DHT22;9755;47.790;9.620;2022-09-23T10:24:19;21.30;83.20
19242;DHT22;9755;47.790;9.620;2022-09-23T10:26:52;21.90;78.50
19242;DHT22;9755;47.790;9.620;2022-09-23T10:29:28;21.30;76.40
19242;DHT22;9755;47.790;9.620;2022-09-23T10:32:22;21.50;78.90
19242;DHT22;9755;47.790;9.620;2022-09-23T10:34:54;20.80;78.70
19242;DHT22;9755;47.790;9.620;2022-09-23T10:37:29;21.50;82.00
19242;DHT22;9755;47.790;9.620;2022-09-23T10:39:58;21.60;77.00
19242;DHT22;9755;47.790;9.620;2022-09-23T10:42:53;21.60;79.70
19242;DHT22;9755;47.790;9.620;2022-09-23T10:45:46;21.80;78.30
19242;DHT22;9755;47.790;9.620;2022-09-23T10:48:40;22.30;78.70
19242;DHT22;9755;47.790;9.620;2022-09-23T10:51:13;21.80;77.30
19242;DHT22;9755;47.790;9.620;2022-09-23T10:53:54;21.50;78.00
19242;DHT22;9755;47.790;9.620;2022-09-23T10:56:29;21.70;78.30
19242;DHT22;9755;47.790;9.620;2022-09-23T11:02:10;22.20;78.70
19242;DHT22;9755;47.790;9.620;2022-09-23T11:05:04;21.70;77.00
19242;DHT22;9755;47.790;9.620;2022-09-23T11:07:38;22.10;76.60
19242;DHT22;9755;47.790;9.620;2022-09-23T11:10:28;23.10;73.00
19242;DHT22;9755;47.790;9.620;2022-09-23T11:13:06;22.80;73.30
19242;DHT22;9755;47.790;9.620;2022-09-23T11:15:45;23.20;73.00
19242;DHT22;9755;47.790;9.620;2022-09-23T11:18:49;22.80;71.30
19242;DHT22;9755;47.790;9.620;2022-09-23T11:24:34;22.50;71.10
19242;DHT22;9755;47.790;9.620;2022-09-23T11:27:10;22.60;72.50
19242;DHT22;9755;47.790;9.620;2022-09-23T11:29:59;23.10;71.10
19242;DHT22;9755;47.790;9.620;2022-09-23T11:32:44;22.60;71.50
19242;DHT22;9755;47.790;9.620;2022-09-23T11:35:19;22.30;74.60
19242;DHT22;9755;47.790;9.620;2022-09-23T11:37:51;22.30;77.40
19242;DHT22;9755;47.790;9.620;2022-09-23T11:40:23;22.40;77.30
19242;DHT22;9755;47.790;9.620;2022-09-23T11:42:58;22.00;75.50
19242;DHT22;9755;47.790;9.620;2022-09-23T11:45:29;22.40;73.70
19242;DHT22;9755;47.790;9.620;2022-09-23T11:48:04;22.60;73.10
19242;DHT22;9755;47.790;9.620;2022-09-23T11:50:37;23.40;70.90
19242;DHT22;9755;47.790;9.620;2022-09-23T11:53:11;23.80;70.60
19242;DHT22;9755;47.790;9.620;2022-09-23T11:55:45;23.90;70.60
19242;DHT22;9755;47.790;9.620;2022-09-23T11:58:17;24.40;70.00
19242;DHT22;9755;47.790;9.620;2022-09-23T12:00:50;23.40;67.60
19242;DHT22;9755;47.790;9.620;2022-09-23T12:03:24;23.70;67.30
19242;DHT22;9755;47.790;9.620;2022-09-23T12:05:58;23.40;67.90
19242;DHT22;9755;47.790;9.620;2022-09-23T12:08:28;23.00;69.00
19242;DHT22;9755;47.790;9.620;2022-09-23T12:11:02;23.20;69.70
19242;DHT22;9755;47.790;9.620;2022-09-23T12:13:41;23.20;70.10
19242;DHT22;9755;47.790;9.620;2022-09-23T12:16:33;23.30;63.60
19242;DHT22;9755;47.790;9.620;2022-09-23T12:19:15;23.10;67.70
19242;DHT22;9755;47.790;9.620;2022-09-23T12:21:58;23.00;62.70
19242;DHT22;9755;47.790;9.620;2022-09-23T12:24:43;23.20;63.90
19242;DHT22;9755;47.790;9.620;2022-09-23T12:27:19;22.80;65.10
19242;DHT22;9755;47.790;9.620;2022-09-23T12:29:53;22.40;64.40
19242;DHT22;9755;47.790;9.620;2022-09-23T12:32:25;22.70;64.70
19242;DHT22;9755;47.790;9.620;2022-09-23T12:34:53;22.50;65.30
19242;DHT22;9755;47.790;9.620;2022-09-23T12:37:27;22.00;65.10
19242;DHT22;9755;47.790;9.620;2022-09-23T12:40:04;22.30;67.70
19242;DHT22;9755;47.790;9.620;2022-09-23T12:42:32;22.30;66.40
19242;DHT22;9755;47.790;9.620;2022-09-23T12:45:33;21.90;65.80
19242;DHT22;9755;47.790;9.620;2022-09-23T12:48:02;22.00;67.90
19242;DHT22;9755;47.790;9.620;2022-09-23T12:50:56;22.40;68.90
19242;DHT22;9755;47.790;9.620;2022-09-23T12:57:11;22.10;66.40
19242;DHT22;9755;47.790;9.620;2022-09-23T12:59:56;21.60;68.00
19242;DHT22;9755;47.790;9.620;2022-09-23T13:02:33;22.20;69.00
19242;DHT22;9755;47.790;9.620;2022-09-23T13:05:13;21.80;68.90
19242;DHT22;9755;47.790;9.620;2022-09-23T13:08:02;22.30;68.50
19242;DHT22;9755;47.790;9.620;2022-09-23T13:10:32;22.30;67.90
19242;DHT22;9755;47.790;9.620;2022-09-23T13:13:02;22.30;69.70
19242;DHT22;9755;47.790;9.620;2022-09-23T13:15:32;22.60;69.60
19242;DHT22;9755;47.790;9.620;2022-09-23T13:21:15;22.70;67.70
19242;DHT22;9755;47.790;9.620;2022-09-23T13:24:16;22.70;68.00
19242;DHT22;9755;47.790;9.620;2022-09-23T13:26:45;22.70;68.80
19242;DHT22;9755;47.790;9.620;2022-09-23T13:29:18;22.50;67.40
19242;DHT22;9755;47.790;9.620;2022-09-23T13:31:48;22.30;67.40
19242;DHT22;9755;47.790;9.620;2022-09-23T13:34:19;21.70;69.70
19242;DHT22;9755;47.790;9.620;2022-09-23T13:36:49;21.60;71.70
19242;DHT22;9755;47.790;9.620;2022-09-23T13:39:22;22.10;68.00
19242;DHT22;9755;47.790;9.620;2022-09-23T13:41:53;22.20;68.50
19242;DHT22;9755;47.790;9.620;2022-09-23T13:44:23;22.50;70.30
19242;DHT22;9755;47.790;9.620;2022-09-23T13:46:52;22.50;68.90
19242;DHT22;9755;47.790;9.620;2022-09-23T13:49:27;22.00;67.60
19242;DHT22;9755;47.790;9.620;2022-09-23T13:51:56;21.90;69.40
19242;DHT22;9755;47.790;9.620;2022-09-23T13:54:26;21.90;69.50
19242;DHT22;9755;47.790;9.620;2022-09-23T13:56:57;21.60;68.90
19242;DHT22;9755;47.790;9.620;2022-09-23T13:59:27;21.60;69.80
19242;DHT22;9755;47.790;9.620;2022-09-23T14:02:10;21.90;70.90
19242;DHT22;9755;47.790;9.620;2022-09-23T14:04:37;21.90;71.70
19242;DHT22;9755;47.790;9.620;2022-09-23T14:07:07;22.00;72.00
19242;DHT22;9755;47.790;9.620;2022-09-23T14:09:36;21.90;71.20
19242;DHT22;9755;47.790;9.620;2022-09-23T14:12:06;21.90;71.80
19242;DHT22;9755;47.790;9.620;2022-09-23T14:14:37;21.90;70.50
19242;DHT22;9755;47.790;9.620;2022-09-23T14:17:08;21.90;71.70
19242;DHT22;9755;47.790;9.620;2022-09-23T14:19:41;21.60;72.70
19242;DHT22;9755;47.790;9.620;2022-09-23T14:22:21;21.40;74.60
19242;DHT22;9755;47.790;9.620;2022-09-23T14:24:51;21.20;74.10
19242;DHT22;9755;47.790;9.620;2022-09-23T14:27:26;20.90;76.10
19242;DHT22;9755;47.790;9.620;2022-09-23T14:29:56;20.90;77.40
19242;DHT22;9755;47.790;9.620;2022-09-23T14:32:25;21.00;78.60
19242;DHT22;9755;47.790;9.620;2022-09-23T14:35:05;21.20;78.90
19242;DHT22;9755;47.790;9.620;2022-09-23T14:37:41;21.50;79.00
19242;DHT22;9755;47.790;9.620;2022-09-23T14:40:27;21.60;75.90
19242;DHT22;9755;47.790;9.620;2022-09-23T14:43:00;21.70;74.30
19242;DHT22;9755;47.790;9.620;2022-09-23T14:45:32;21.60;73.40
19242;DHT22;9755;47.790;9.620;2022-09-23T14:48:03;21.60;72.90
19242;DHT22;9755;47.790;9.620;2022-09-23T14:50:31;21.40;73.40
19242;DHT22;9755;47.790;9.620;2022-09-23T14:53:05;21.20;75.30
19242;DHT22;9755;47.790;9.620;2022-09-23T14:55:32;21.20;75.20
19242;DHT22;9755;47.790;9.620;2022-09-23T14:58:04;21.30;75.60
19242;DHT22;9755;47.790;9.620;2022-09-23T15:00:50;21.30;74.40
19242;DHT22;9755;47.790;9.620;2022-09-23T15:03:21;21.40;76.30
19242;DHT22;9755;47.790;9.620;2022-09-23T15:05:49;21.60;76.50
19242;DHT22;9755;47.790;9.620;2022-09-23T15:08:21;21.60;77.10
19242;DHT22;9755;47.790;9.620;2022-09-23T15:10:50;21.60;75.30
19242;DHT22;9755;47.790;9.620;2022-09-23T15:13:21;21.60;77.00
19242;DHT22;9755;47.790;9.620;2022-09-23T15:15:52;21.70;78.00
19242;DHT22;9755;47.790;9.620;2022-09-23T15:18:24;21.80;77.10
19242;DHT22;9755;47.790;9.620;2022-09-23T15:20:53;21.90;77.20
19242;DHT22;9755;47.790;9.620;2022-09-23T15:23:42;22.00;76.60
19242;DHT22;9755;47.790;9.620;2022-09-23T15:26:15;21.90;78.10
19242;DHT22;9755;47.790;9.620;2022-09-23T15:28:45;22.40;76.80
19242;DHT22;9755;47.790;9.620;2022-09-23T15:31:15;22.50;75.80
19242;DHT22;9755;47.790;9.620;2022-09-23T15:33:44;22.40;76.10
19242;DHT22;9755;47.790;9.620;2022-09-23T15:36:16;22.40;75.70
19242;DHT22;9755;47.790;9.620;2022-09-23T15:38:46;22.30;76.70
19242;DHT22;9755;47.790;9.620;2022-09-23T15:41:15;22.10;77.10
19242;DHT22;9755;47.790;9.620;2022-09-23T15:43:43;21.90;76.60
19242;DHT22;9755;47.790;9.620;2022-09-23T15:46:15;21.40;78.70
19242;DHT22;9755;47.790;9.620;2022-09-23T15:48:53;21.20;80.20
19242;DHT22;9755;47.790;9.620;2022-09-23T15:51:26;21.10;80.90
19242;DHT22;9755;47.790;9.620;2022-09-23T15:53:55;21.10;81.00
19242;DHT22;9755;47.790;9.620;2022-09-23T15:56:23;21.20;83.50
19242;DHT22;9755;47.790;9.620;2022-09-23T15:58:51;20.80;82.00
19242;DHT22;9755;47.790;9.620;2022-09-23T16:01:25;20.60;83.90
19242;DHT22;9755;47.790;9.620;2022-09-23T16:03:55;20.40;83.70
19242;DHT22;9755;47.790;9.620;2022-09-23T16:06:25;20.10;86.80
19242;DHT22;9755;47.790;9.620;2022-09-23T16:08:53;19.90;89.60
19242;DHT22;9755;47.790;9.620;2022-09-23T16:11:21;19.60;90.30
19242;DHT22;9755;47.790;9.620;2022-09-23T16:13:49;19.40;92.20
19242;DHT22;9755;47.790;9.620;2022-09-23T16:16:17;19.20;93.30
19242;DHT22;9755;47.790;9.620;2022-09-23T16:18:47;19.10;93.80
19242;DHT22;9755;47.790;9.620;2022-09-23T16:21:17;18.90;94.30
19242;DHT22;9755;47.790;9.620;2022-09-23T16:23:46;18.80;94.70
19242;DHT22;9755;47.790;9.620;2022-09-23T16:26:15;18.70;96.00
19242;DHT22;9755;47.790;9.620;2022-09-23T16:28:44;18.60;96.60
19242;DHT22;9755;47.790;9.620;2022-09-23T16:31:13;18.50;98.00
19242;DHT22;9755;47.790;9.620;2022-09-23T16:33:42;18.30;98.30
19242;DHT22;9755;47.790;9.620;2022-09-23T16:36:14;18.20;99.10
19242;DHT22;9755;47.790;9.620;2022-09-23T16:38:43;18.10;99.90
19242;DHT22;9755;47.790;9.620;2022-09-23T16:41:10;17.90;99.90
19242;DHT22;9755;47.790;9.620;2022-09-23T16:43:37;17.70;99.90
19242;DHT22;9755;47.790;9.620;2022-09-23T16:46:05;17.60;99.90